createdAt,value
2023-02-09T00:01:25.977Z,100.00
2023-02-09T00:03:52.597Z,100.00
2023-02-09T00:06:23.302Z,100.00
2023-02-09T00:08:59.873Z,100.00
2023-02-09T00:11:50.080Z,100.00
2023-02-09T00:14:22.087Z,100.00
2023-02-09T00:17:07.560Z,100.00
2023-02-09T00:19:43.068Z,100.00
2023-02-09T00:22:09.507Z,100.00
2023-02-09T00:24:47.780Z,100.00
2023-02-09T00:27:14.572Z,100.00
2023-02-09T00:29:41.467Z,100.00
2023-02-09T00:32:10.252Z,100.00
2023-02-09T00:34:40.417Z,100.00
2023-02-09T00:37:07.341Z,100.00
2023-02-09T00:39:41.634Z,100.00
2023-02-09T00:42:13.632Z,100.00
2023-02-09T00:44:40.405Z,100.00
2023-02-09T00:47:08.762Z,100.00
2023-02-09T00:49:40.281Z,100.00
2023-02-09T00:52:09.580Z,100.00
2023-02-09T00:54:41.840Z,100.00
2023-02-09T00:57:13.878Z,100.00
2023-02-09T00:59:46.958Z,100.00
2023-02-09T01:02:14.109Z,100.00
2023-02-09T01:04:41.062Z,100.00
2023-02-09T01:07:10.436Z,100.00
2023-02-09T01:09:39.248Z,100.00
2023-02-09T01:12:13.727Z,100.00
2023-02-09T01:14:40.844Z,100.00
2023-02-09T01:17:07.861Z,100.00
2023-02-09T01:22:19.646Z,100.00
2023-02-09T01:24:53.851Z,100.00
2023-02-09T01:27:20.954Z,100.00
2023-02-09T01:29:50.655Z,100.00
2023-02-09T01:32:22.422Z,100.00
2023-02-09T01:35:02.028Z,100.00
2023-02-09T01:37:28.662Z,100.00
2023-02-09T01:39:55.048Z,100.00
2023-02-09T01:42:22.109Z,100.00
2023-02-09T01:45:13.924Z,100.00
2023-02-09T01:47:47.184Z,100.00
2023-02-09T01:50:14.792Z,100.00
2023-02-09T01:52:42.950Z,100.00
2023-02-09T01:55:13.758Z,100.00
2023-02-09T01:57:45.677Z,100.00
2023-02-09T02:00:25.150Z,100.00
2023-02-09T02:03:00.732Z,100.00
2023-02-09T02:05:28.877Z,100.00
2023-02-09T02:08:04.472Z,100.00
2023-02-09T02:10:31.405Z,100.00
2023-02-09T02:12:58.018Z,100.00
2023-02-09T02:15:30.382Z,100.00
2023-02-09T02:18:17.437Z,100.00
2023-02-09T02:21:16.376Z,100.00
2023-02-09T02:23:58.076Z,100.00
2023-02-09T02:27:01.984Z,100.00
2023-02-09T02:29:56.156Z,100.00
2023-02-09T02:32:35.033Z,100.00
2023-02-09T02:35:09.212Z,100.00
2023-02-09T02:38:17.815Z,100.00
2023-02-09T02:40:56.263Z,100.00
2023-02-09T02:43:51.248Z,100.00
2023-02-09T02:46:39.951Z,100.00
2023-02-09T02:49:23.849Z,100.00
2023-02-09T02:51:55.247Z,100.00
2023-02-09T02:54:27.867Z,100.00
2023-02-09T02:57:05.967Z,100.00
2023-02-09T02:59:44.373Z,100.00
2023-02-09T03:02:19.980Z,100.00
2023-02-09T03:04:50.200Z,100.00
2023-02-09T03:07:18.552Z,100.00
2023-02-09T03:09:53.186Z,100.00
2023-02-09T03:12:58.661Z,100.00
2023-02-09T03:15:32.883Z,100.00
2023-02-09T03:18:30.334Z,100.00
2023-02-09T03:21:02.933Z,100.00
2023-02-09T03:23:42.185Z,100.00
2023-02-09T03:26:15.970Z,100.00
2023-02-09T03:28:46.576Z,100.00
2023-02-09T03:31:13.936Z,100.00
2023-02-09T03:33:41.629Z,100.00
2023-02-09T03:36:19.928Z,100.00
2023-02-09T03:38:46.619Z,100.00
2023-02-09T03:41:12.990Z,100.00
2023-02-09T03:43:58.698Z,100.00
2023-02-09T03:46:25.260Z,100.00
2023-02-09T03:48:52.173Z,100.00
2023-02-09T03:51:18.684Z,100.00
2023-02-09T03:53:46.790Z,100.00
2023-02-09T03:56:13.181Z,100.00
2023-02-09T03:58:39.587Z,100.00
2023-02-09T04:01:08.721Z,100.00
2023-02-09T04:03:36.782Z,100.00
2023-02-09T04:06:04.453Z,100.00
2023-02-09T04:08:31.156Z,100.00
2023-02-09T04:10:57.817Z,100.00
2023-02-09T04:13:25.486Z,100.00
2023-02-09T04:15:52.704Z,100.00
2023-02-09T04:18:19.650Z,100.00
2023-02-09T04:20:46.505Z,100.00
2023-02-09T04:23:13.816Z,100.00
2023-02-09T04:25:40.198Z,100.00
2023-02-09T04:28:07.754Z,100.00
2023-02-09T04:30:34.745Z,100.00
2023-02-09T04:33:01.194Z,100.00
2023-02-09T04:35:27.790Z,100.00
2023-02-09T04:37:54.232Z,100.00
2023-02-09T04:40:20.786Z,100.00
2023-02-09T04:42:47.783Z,100.00
2023-02-09T04:45:14.325Z,100.00
2023-02-09T04:47:40.958Z,100.00
2023-02-09T04:50:07.524Z,100.00
2023-02-09T04:52:34.158Z,100.00
2023-02-09T04:55:00.927Z,100.00
2023-02-09T04:57:46.224Z,100.00
2023-02-09T05:00:13.730Z,100.00
2023-02-09T05:02:40.109Z,100.00
2023-02-09T05:05:07.147Z,100.00
2023-02-09T05:07:33.501Z,100.00
2023-02-09T05:10:00.003Z,100.00
2023-02-09T05:12:26.394Z,100.00
2023-02-09T05:14:52.986Z,100.00
2023-02-09T05:17:21.072Z,100.00
2023-02-09T05:19:48.909Z,100.00
2023-02-09T05:22:15.658Z,100.00
2023-02-09T05:24:42.446Z,100.00
2023-02-09T05:27:08.858Z,100.00
2023-02-09T05:29:35.769Z,100.00
2023-02-09T05:32:02.257Z,100.00
2023-02-09T05:34:29.223Z,100.00
2023-02-09T05:36:55.656Z,100.00
2023-02-09T05:39:22.666Z,100.00
2023-02-09T05:42:09.035Z,100.00
2023-02-09T05:44:35.848Z,100.00
2023-02-09T05:47:02.291Z,100.00
2023-02-09T05:49:29.153Z,100.00
2023-02-09T05:51:56.005Z,100.00
2023-02-09T05:54:22.448Z,100.00
2023-02-09T05:56:49.041Z,100.00
2023-02-09T05:59:15.431Z,100.00
2023-02-09T06:01:41.961Z,100.00
2023-02-09T06:04:09.305Z,100.00
2023-02-09T06:06:36.399Z,100.00
2023-02-09T06:09:03.788Z,100.00
2023-02-09T06:11:30.238Z,100.00
2023-02-09T06:13:57.096Z,100.00
2023-02-09T06:16:23.605Z,100.00
2023-02-09T06:18:50.092Z,100.00
2023-02-09T06:21:16.621Z,100.00
2023-02-09T06:23:43.386Z,100.00
2023-02-09T06:26:12.911Z,100.00
2023-02-09T06:28:39.533Z,100.00
2023-02-09T06:31:07.182Z,100.00
2023-02-09T06:33:35.253Z,100.00
2023-02-09T06:36:03.212Z,100.00
2023-02-09T06:38:34.698Z,100.00
2023-02-09T06:41:01.485Z,100.00
2023-02-09T06:43:28.001Z,100.00
2023-02-09T06:45:54.930Z,100.00
2023-02-09T06:48:21.323Z,100.00
2023-02-09T06:50:48.255Z,100.00
2023-02-09T06:53:16.048Z,100.00
2023-02-09T06:55:42.979Z,100.00
2023-02-09T06:58:09.445Z,100.00
2023-02-09T07:00:35.794Z,100.00
2023-02-09T07:03:03.315Z,100.00
2023-02-09T07:05:31.364Z,100.00
2023-02-09T07:07:57.881Z,100.00
2023-02-09T07:10:25.005Z,100.00
2023-02-09T07:12:51.699Z,100.00
2023-02-09T07:15:18.282Z,100.00
2023-02-09T07:17:44.769Z,100.00
2023-02-09T07:20:11.762Z,100.00
2023-02-09T07:22:38.594Z,100.00
2023-02-09T07:25:05.713Z,100.00
2023-02-09T07:27:32.154Z,100.00
2023-02-09T07:30:00.931Z,100.00
2023-02-09T07:32:27.774Z,100.00
2023-02-09T07:34:54.304Z,100.00
2023-02-09T07:37:20.756Z,100.00
2023-02-09T07:39:47.467Z,100.00
2023-02-09T07:42:14.288Z,100.00
2023-02-09T07:44:40.704Z,100.00
2023-02-09T07:47:07.388Z,100.00
2023-02-09T07:49:36.883Z,100.00
2023-02-09T07:52:04.378Z,100.00
2023-02-09T07:54:30.849Z,100.00
2023-02-09T07:56:57.526Z,100.00
2023-02-09T07:59:24.122Z,100.00
2023-02-09T08:01:51.920Z,100.00
2023-02-09T08:04:18.379Z,100.00
2023-02-09T08:06:46.870Z,100.00
2023-02-09T08:09:16.591Z,100.00
2023-02-09T08:12:02.900Z,100.00
2023-02-09T08:14:36.671Z,100.00
2023-02-09T08:17:20.741Z,100.00
2023-02-09T08:19:58.994Z,100.00
2023-02-09T08:22:31.456Z,100.00
2023-02-09T08:24:59.186Z,100.00
2023-02-09T08:27:25.996Z,100.00
2023-02-09T08:29:52.995Z,100.00
2023-02-09T08:32:19.451Z,100.00
2023-02-09T08:34:46.163Z,100.00
2023-02-09T08:37:12.696Z,100.00
2023-02-09T08:39:39.217Z,100.00
2023-02-09T08:42:05.935Z,100.00
2023-02-09T08:44:32.526Z,100.00
2023-02-09T08:46:59.129Z,100.00
2023-02-09T08:49:25.879Z,100.00
2023-02-09T08:51:52.296Z,100.00
2023-02-09T08:54:18.674Z,100.00
2023-02-09T08:56:45.766Z,100.00
2023-02-09T08:59:12.547Z,100.00
2023-02-09T09:01:40.369Z,100.00
2023-02-09T09:04:07.993Z,100.00
2023-02-09T09:06:34.541Z,100.00
2023-02-09T09:09:01.097Z,100.00
2023-02-09T09:11:28.550Z,100.00
2023-02-09T09:13:55.565Z,100.00
2023-02-09T09:16:22.911Z,100.00
2023-02-09T09:18:50.214Z,100.00
2023-02-09T09:21:18.667Z,100.00
2023-02-09T09:23:46.476Z,100.00
2023-02-09T09:26:13.513Z,100.00
2023-02-09T09:28:39.946Z,100.00
2023-02-09T09:31:12.045Z,100.00
2023-02-09T09:33:38.965Z,100.00
2023-02-09T09:36:06.979Z,100.00
2023-02-09T09:38:35.241Z,100.00
2023-02-09T09:41:03.452Z,100.00
2023-02-09T09:43:40.065Z,100.00
2023-02-09T09:46:12.038Z,100.00
2023-02-09T09:48:48.643Z,100.00
2023-02-09T09:51:23.344Z,100.00
2023-02-09T09:53:53.629Z,100.00
2023-02-09T09:56:26.846Z,100.00
2023-02-09T09:58:53.697Z,100.00
2023-02-09T10:01:21.487Z,100.00
2023-02-09T10:03:48.176Z,100.00
2023-02-09T10:06:18.192Z,100.00
2023-02-09T10:08:52.643Z,100.00
2023-02-09T10:11:27.990Z,100.00
2023-02-09T10:13:56.843Z,100.00
2023-02-09T10:16:34.538Z,100.00
2023-02-09T10:19:03.922Z,100.00
2023-02-09T10:21:33.458Z,100.00
2023-02-09T10:24:00.276Z,100.00
2023-02-09T10:26:30.992Z,100.00
2023-02-09T10:29:21.331Z,100.00
2023-02-09T10:31:57.658Z,100.00
2023-02-09T10:34:42.615Z,100.00
2023-02-09T10:37:35.983Z,100.00
2023-02-09T10:40:23.693Z,100.00
2023-02-09T10:43:02.890Z,100.00
2023-02-09T10:45:42.403Z,100.00
2023-02-09T10:48:12.247Z,100.00
2023-02-09T10:51:05.183Z,100.00
2023-02-09T10:53:33.512Z,100.00
2023-02-09T10:56:16.972Z,100.00
2023-02-09T10:58:51.592Z,100.00
2023-02-09T11:01:21.463Z,100.00
2023-02-09T11:03:57.740Z,100.00
2023-02-09T11:06:24.197Z,100.00
2023-02-09T11:09:14.264Z,100.00
2023-02-09T11:11:43.454Z,100.00
2023-02-09T11:14:16.571Z,100.00
2023-02-09T11:16:53.667Z,100.00
2023-02-09T11:19:31.085Z,100.00
2023-02-09T11:22:54.636Z,100.00
2023-02-09T11:25:39.807Z,100.00
2023-02-09T11:28:30.981Z,100.00
2023-02-09T11:31:00.830Z,100.00
2023-02-09T11:33:46.837Z,100.00
2023-02-09T11:36:22.523Z,100.00
2023-02-09T11:38:58.277Z,100.00
2023-02-09T11:41:48.772Z,100.00
2023-02-09T11:44:35.722Z,100.00
2023-02-09T11:47:05.986Z,100.00
2023-02-09T11:49:45.031Z,100.00
2023-02-09T11:52:21.957Z,100.00
2023-02-09T11:54:52.683Z,100.00
2023-02-09T11:57:40.704Z,100.00
2023-02-09T12:00:19.733Z,100.00
2023-02-09T12:02:58.554Z,100.00
2023-02-09T12:05:25.961Z,100.00
2023-02-09T12:08:07.503Z,91.21
2023-02-09T12:10:49.141Z,83.23
2023-02-09T12:13:27.520Z,92.72
2023-02-09T12:15:57.952Z,98.95
2023-02-09T12:18:28.492Z,93.52
2023-02-09T12:21:01.304Z,91.97
2023-02-09T12:23:27.631Z,97.07
2023-02-09T12:26:00.905Z,100.00
2023-02-09T12:28:27.331Z,100.00
2023-02-09T12:30:54.369Z,100.00
2023-02-09T12:33:23.956Z,100.00
2023-02-09T12:36:09.882Z,100.00
2023-02-09T12:39:04.058Z,100.00
2023-02-09T12:41:51.224Z,94.81
2023-02-09T12:44:18.416Z,94.04
2023-02-09T12:46:45.560Z,93.09
2023-02-09T12:49:12.405Z,94.35
2023-02-09T12:51:53.141Z,100.00
2023-02-09T12:54:49.248Z,98.35
2023-02-09T12:57:15.592Z,97.08
2023-02-09T13:00:00.025Z,94.89
2023-02-09T13:02:36.018Z,84.26
2023-02-09T13:05:27.512Z,81.30
2023-02-09T13:08:18.505Z,82.23
2023-02-09T13:10:59.086Z,81.94
2023-02-09T13:13:38.021Z,85.87
2023-02-09T13:16:04.358Z,80.83
2023-02-09T13:18:52.054Z,82.96
2023-02-09T13:21:45.257Z,80.61
2023-02-09T13:24:32.933Z,81.89
2023-02-09T13:27:00.137Z,81.13
2023-02-09T13:29:33.274Z,78.95
2023-02-09T13:32:13.099Z,76.11
2023-02-09T13:35:07.730Z,79.62
2023-02-09T13:37:54.249Z,83.25
2023-02-09T13:40:25.681Z,84.04
2023-02-09T13:42:54.121Z,85.21
2023-02-09T13:45:24.300Z,82.59
2023-02-09T13:47:51.380Z,80.87
2023-02-09T13:50:23.232Z,80.30
2023-02-09T13:52:52.980Z,80.56
2023-02-09T13:55:23.856Z,84.13
2023-02-09T13:58:00.623Z,81.98
2023-02-09T14:00:40.114Z,80.57
2023-02-09T14:03:14.738Z,80.93
2023-02-09T14:05:43.761Z,83.18
2023-02-09T14:08:13.303Z,75.65
2023-02-09T14:10:43.262Z,83.85
2023-02-09T14:13:23.110Z,77.79
2023-02-09T14:16:09.505Z,77.92
2023-02-09T14:18:47.105Z,79.32
2023-02-09T14:21:17.828Z,87.04
2023-02-09T14:24:18.724Z,83.01
2023-02-09T14:26:47.270Z,76.67
2023-02-09T14:29:29.284Z,76.13
2023-02-09T14:32:01.644Z,80.86
2023-02-09T14:34:33.179Z,82.52
2023-02-09T14:37:03.817Z,76.66
2023-02-09T14:39:31.449Z,79.78
2023-02-09T14:42:02.711Z,83.81
2023-02-09T14:44:30.415Z,83.94
2023-02-09T14:46:59.734Z,84.53
2023-02-09T14:49:27.638Z,87.79
2023-02-09T14:52:15.179Z,89.49
2023-02-09T14:54:50.201Z,82.89
2023-02-09T14:57:17.163Z,88.75
2023-02-09T14:59:43.999Z,89.76
2023-02-09T15:02:19.220Z,94.53
2023-02-09T15:04:46.771Z,94.37
2023-02-09T15:07:19.226Z,91.04
2023-02-09T15:09:47.002Z,93.98
2023-02-09T15:12:23.286Z,98.78
2023-02-09T15:14:51.189Z,96.05
2023-02-09T15:17:21.316Z,97.35
2023-02-09T15:19:47.951Z,100.00
2023-02-09T15:25:00.529Z,100.00
2023-02-09T15:27:35.094Z,100.00
2023-02-09T15:30:04.557Z,100.00
2023-02-09T15:32:31.550Z,100.00
2023-02-09T15:34:58.279Z,100.00
2023-02-09T15:37:28.742Z,100.00
2023-02-09T15:39:59.237Z,100.00
2023-02-09T15:42:44.279Z,100.00
2023-02-09T15:45:35.595Z,100.00
2023-02-09T15:48:02.401Z,100.00
2023-02-09T15:50:30.108Z,100.00
2023-02-09T15:52:58.052Z,100.00
2023-02-09T15:55:27.061Z,100.00
2023-02-09T15:57:54.836Z,100.00
2023-02-09T16:00:27.760Z,100.00
2023-02-09T16:02:55.883Z,100.00
2023-02-09T16:05:23.094Z,100.00
2023-02-09T16:07:52.601Z,100.00
2023-02-09T16:10:29.282Z,100.00
2023-02-09T16:12:57.051Z,100.00
2023-02-09T16:15:27.692Z,100.00
2023-02-09T16:17:54.143Z,100.00
2023-02-09T16:20:23.715Z,100.00
2023-02-09T16:22:54.405Z,100.00
2023-02-09T16:25:24.665Z,100.00
2023-02-09T16:27:52.596Z,100.00
2023-02-09T16:30:23.135Z,100.00
2023-02-09T16:32:50.509Z,100.00
2023-02-09T16:35:18.577Z,100.00
2023-02-09T16:37:47.427Z,100.00
2023-02-09T16:40:25.015Z,100.00
2023-02-09T16:42:52.355Z,100.00
2023-02-09T16:45:22.918Z,100.00
2023-02-09T16:47:52.970Z,100.00
2023-02-09T16:50:22.708Z,100.00
2023-02-09T16:52:52.461Z,100.00
2023-02-09T16:55:33.102Z,100.00
2023-02-09T16:58:02.185Z,100.00
2023-02-09T17:00:31.902Z,100.00
2023-02-09T17:03:14.010Z,100.00
2023-02-09T17:05:43.518Z,100.00
2023-02-09T17:08:23.356Z,100.00
2023-02-09T17:10:52.221Z,100.00
2023-02-09T17:13:21.932Z,100.00
2023-02-09T17:15:51.828Z,100.00
2023-02-09T17:18:24.013Z,100.00
2023-02-09T17:20:55.183Z,100.00
2023-02-09T17:23:25.248Z,100.00
2023-02-09T17:25:55.078Z,100.00
2023-02-09T17:28:23.942Z,100.00
2023-02-09T17:30:55.412Z,100.00
2023-02-09T17:33:25.154Z,100.00
2023-02-09T17:36:24.251Z,100.00
2023-02-09T17:38:44.782Z,100.00
2023-02-09T17:41:32.673Z,100.00
2023-02-09T17:44:26.417Z,100.00
2023-02-09T17:46:58.335Z,100.00
2023-02-09T17:49:25.284Z,100.00
2023-02-09T17:51:52.848Z,100.00
2023-02-09T17:54:20.532Z,100.00
2023-02-09T17:56:47.794Z,100.00
2023-02-09T17:59:14.741Z,100.00
2023-02-09T18:01:45.112Z,100.00
2023-02-09T18:04:17.668Z,100.00
2023-02-09T18:06:44.134Z,100.00
2023-02-09T18:09:13.497Z,100.00
2023-02-09T18:11:56.580Z,100.00
2023-02-09T18:14:25.243Z,100.00
2023-02-09T18:16:53.447Z,100.00
2023-02-09T18:19:20.206Z,100.00
2023-02-09T18:21:49.744Z,100.00
2023-02-09T18:24:17.147Z,100.00
2023-02-09T18:26:44.148Z,100.00
2023-02-09T18:29:10.637Z,100.00
2023-02-09T18:31:37.789Z,100.00
2023-02-09T18:34:04.708Z,100.00
2023-02-09T18:36:33.481Z,100.00
2023-02-09T18:39:00.127Z,100.00
2023-02-09T18:41:27.107Z,100.00
2023-02-09T18:43:54.557Z,100.00
2023-02-09T18:46:24.591Z,100.00
2023-02-09T18:48:51.621Z,100.00
2023-02-09T18:51:18.322Z,100.00
2023-02-09T18:53:44.765Z,100.00
2023-02-09T18:56:20.823Z,100.00
2023-02-09T18:58:49.642Z,100.00
2023-02-09T19:01:18.815Z,100.00
2023-02-09T19:03:45.223Z,100.00
2023-02-09T19:06:12.678Z,100.00
2023-02-09T19:08:40.158Z,100.00
2023-02-09T19:11:07.544Z,100.00
2023-02-09T19:13:35.617Z,100.00
2023-02-09T19:16:02.635Z,100.00
2023-02-09T19:18:29.387Z,100.00
2023-02-09T19:20:56.009Z,100.00
2023-02-09T19:23:24.599Z,100.00
2023-02-09T19:26:02.598Z,100.00
2023-02-09T19:28:29.184Z,100.00
2023-02-09T19:30:55.946Z,100.00
2023-02-09T19:33:24.021Z,100.00
2023-02-09T19:35:58.068Z,100.00
2023-02-09T19:38:26.379Z,100.00
2023-02-09T19:41:08.590Z,100.00
2023-02-09T19:43:36.360Z,100.00
2023-02-09T19:46:04.836Z,100.00
2023-02-09T19:48:31.841Z,100.00
2023-02-09T19:50:59.586Z,100.00
2023-02-09T19:53:26.618Z,100.00
2023-02-09T19:55:54.007Z,100.00
2023-02-09T19:58:21.722Z,100.00
2023-02-09T20:00:52.492Z,100.00
2023-02-09T20:03:19.191Z,100.00
2023-02-09T20:05:46.341Z,100.00
2023-02-09T20:08:16.824Z,100.00
2023-02-09T20:10:44.276Z,100.00
2023-02-09T20:13:13.201Z,100.00
2023-02-09T20:15:41.666Z,100.00
2023-02-09T20:18:08.765Z,100.00
2023-02-09T20:20:35.397Z,100.00
2023-02-09T20:23:02.026Z,100.00
2023-02-09T20:25:28.785Z,100.00
2023-02-09T20:27:55.613Z,100.00
2023-02-09T20:30:23.204Z,100.00
2023-02-09T20:32:49.583Z,100.00
2023-02-09T20:35:16.339Z,100.00
2023-02-09T20:37:43.346Z,100.00
2023-02-09T20:40:11.326Z,100.00
2023-02-09T20:42:56.986Z,100.00
2023-02-09T20:45:42.978Z,100.00
2023-02-09T20:48:09.479Z,100.00
2023-02-09T20:50:36.239Z,100.00
2023-02-09T20:53:03.118Z,100.00
2023-02-09T20:55:30.244Z,100.00
2023-02-09T20:57:57.046Z,100.00
2023-02-09T21:00:24.000Z,100.00
2023-02-09T21:02:50.935Z,100.00
2023-02-09T21:05:17.393Z,100.00
2023-02-09T21:07:43.956Z,100.00
2023-02-09T21:10:12.852Z,100.00
2023-02-09T21:12:39.353Z,100.00
2023-02-09T21:15:06.710Z,100.00
2023-02-09T21:17:33.269Z,100.00
2023-02-09T21:20:00.626Z,100.00
2023-02-09T21:22:27.004Z,100.00
2023-02-09T21:24:53.835Z,100.00
2023-02-09T21:27:20.550Z,100.00
2023-02-09T21:29:47.046Z,100.00
2023-02-09T21:32:13.612Z,100.00
2023-02-09T21:34:40.055Z,100.00
2023-02-09T21:37:10.089Z,100.00
2023-02-09T21:39:36.625Z,100.00
2023-02-09T21:42:22.421Z,100.00
2023-02-09T21:44:48.991Z,100.00
2023-02-09T21:47:15.955Z,100.00
2023-02-09T21:49:42.706Z,100.00
2023-02-09T21:52:09.618Z,100.00
2023-02-09T21:54:36.159Z,100.00
2023-02-09T21:57:03.619Z,100.00
2023-02-09T21:59:30.780Z,100.00
2023-02-09T22:01:57.449Z,100.00
2023-02-09T22:04:24.023Z,100.00
2023-02-09T22:06:50.561Z,100.00
2023-02-09T22:09:17.107Z,100.00
2023-02-09T22:11:43.488Z,100.00
2023-02-09T22:14:10.121Z,100.00
2023-02-09T22:16:36.556Z,100.00
2023-02-09T22:19:04.586Z,100.00
2023-02-09T22:21:31.793Z,100.00
2023-02-09T22:23:58.284Z,100.00
2023-02-09T22:26:25.054Z,100.00
2023-02-09T22:28:51.574Z,100.00
2023-02-09T22:31:20.324Z,100.00
2023-02-09T22:33:53.425Z,100.00
2023-02-09T22:36:21.310Z,100.00
2023-02-09T22:38:48.389Z,100.00
2023-02-09T22:41:24.166Z,100.00
2023-02-09T22:43:56.513Z,100.00
2023-02-09T22:46:29.607Z,100.00
2023-02-09T22:48:59.045Z,100.00
2023-02-09T22:51:28.285Z,100.00
2023-02-09T22:53:59.498Z,100.00
2023-02-09T22:56:27.944Z,100.00
2023-02-09T22:58:56.555Z,100.00
2023-02-09T23:01:24.355Z,100.00
2023-02-09T23:03:51.796Z,100.00
2023-02-09T23:06:21.511Z,100.00
2023-02-09T23:08:48.036Z,100.00
2023-02-09T23:11:17.361Z,100.00
2023-02-09T23:13:44.396Z,100.00
2023-02-09T23:16:18.893Z,100.00
2023-02-09T23:18:50.073Z,100.00
2023-02-09T23:21:18.260Z,100.00
2023-02-09T23:23:45.072Z,100.00
2023-02-09T23:26:14.719Z,100.00
2023-02-09T23:28:41.186Z,100.00
2023-02-09T23:31:11.454Z,100.00
2023-02-09T23:33:39.015Z,100.00
2023-02-09T23:36:06.827Z,100.00
2023-02-09T23:38:33.594Z,100.00
2023-02-09T23:41:00.006Z,100.00
2023-02-09T23:43:26.843Z,100.00
2023-02-09T23:45:53.560Z,100.00
2023-02-09T23:48:20.585Z,100.00
2023-02-09T23:50:47.107Z,100.00
2023-02-09T23:53:15.154Z,100.00
2023-02-09T23:55:42.444Z,100.00
2023-02-09T23:58:08.825Z,100.00
